createdAt,value
2019-04-12T00:01:12.774Z,102596.81
2019-04-12T00:03:41.549Z,102598.05
2019-04-12T00:06:09.984Z,102602.17
2019-04-12T00:08:38.383Z,102601.70
2019-04-12T00:11:06.879Z,102603.50
2019-04-12T00:13:35.281Z,102602.27
2019-04-12T00:16:03.716Z,102598.69
2019-04-12T00:18:32.113Z,102599.50
2019-04-12T00:21:00.551Z,102595.91
2019-04-12T00:23:28.948Z,102594.23
2019-04-12T00:25:57.378Z,102591.91
2019-04-12T00:28:25.780Z,102595.05
2019-04-12T00:30:54.486Z,102592.02
2019-04-12T00:33:23.042Z,102594.79
2019-04-12T00:35:52.269Z,102593.04
2019-04-12T00:38:20.798Z,102596.63
2019-04-12T00:40:49.245Z,102596.84
2019-04-12T00:43:17.644Z,102597.70
2019-04-12T00:45:46.084Z,102600.92
2019-04-12T00:48:14.493Z,102598.30
2019-04-12T00:50:42.927Z,102602.01
2019-04-12T00:53:13.531Z,102599.59
2019-04-12T00:55:41.489Z,102593.70
2019-04-12T00:58:09.897Z,102599.84
2019-04-12T01:00:55.874Z,102593.28
2019-04-12T01:03:24.350Z,102593.11
2019-04-12T01:05:53.076Z,102595.25
2019-04-12T01:08:21.742Z,102580.94
2019-04-12T01:10:53.663Z,102589.64
2019-04-12T01:13:21.939Z,102594.82
2019-04-12T01:15:50.343Z,102589.03
2019-04-12T01:18:18.781Z,102588.11
2019-04-12T01:20:47.356Z,102581.42
2019-04-12T01:23:15.865Z,102586.97
2019-04-12T01:25:45.276Z,102586.33
2019-04-12T01:28:17.764Z,102589.23
2019-04-12T01:30:44.045Z,102587.86
2019-04-12T01:33:14.822Z,102587.16
2019-04-12T01:35:42.617Z,102589.23
2019-04-12T01:38:11.045Z,102587.80
2019-04-12T01:40:39.454Z,102589.73
2019-04-12T01:43:07.887Z,102590.25
2019-04-12T01:45:36.299Z,102594.20
2019-04-12T01:48:04.800Z,102587.70
2019-04-12T01:50:33.224Z,102587.83
2019-04-12T01:53:01.642Z,102593.70
2019-04-12T01:55:30.042Z,102582.64
2019-04-12T01:57:58.572Z,102580.23
2019-04-12T02:00:26.979Z,102587.80
2019-04-12T02:02:55.410Z,102587.61
2019-04-12T02:05:23.819Z,102586.91
2019-04-12T02:07:52.254Z,102591.02
2019-04-12T02:10:20.730Z,102588.97
2019-04-12T02:12:49.138Z,102583.54
2019-04-12T02:15:17.836Z,102585.19
2019-04-12T02:17:46.240Z,102587.38
2019-04-12T02:20:14.824Z,102582.56
2019-04-12T02:22:43.225Z,102581.97
2019-04-12T02:25:20.453Z,102583.27
2019-04-12T02:27:41.928Z,102582.92
2019-04-12T02:30:12.401Z,102577.95
2019-04-12T02:32:45.212Z,102580.78
2019-04-12T02:35:15.362Z,102585.81
2019-04-12T02:37:43.834Z,102582.62
2019-04-12T02:40:12.609Z,102581.27
2019-04-12T02:42:41.886Z,102580.22
2019-04-12T02:45:10.386Z,102584.11
2019-04-12T02:47:48.445Z,102583.90
2019-04-12T02:50:25.882Z,102580.06
2019-04-12T02:53:00.352Z,102582.08
2019-04-12T02:55:45.736Z,102584.83
2019-04-12T02:58:32.536Z,102588.97
2019-04-12T03:01:03.287Z,102588.38
2019-04-12T03:03:31.863Z,102589.73
2019-04-12T03:06:00.290Z,102589.47
2019-04-12T03:08:28.701Z,102587.46
2019-04-12T03:10:57.605Z,102583.28
2019-04-12T03:13:27.379Z,102585.31
2019-04-12T03:15:56.144Z,102586.02
2019-04-12T03:18:24.614Z,102583.91
2019-04-12T03:20:53.113Z,102584.98
2019-04-12T03:23:21.655Z,102581.70
2019-04-12T03:25:53.445Z,102592.86
2019-04-12T03:28:20.362Z,102593.91
2019-04-12T03:30:48.865Z,102592.64
2019-04-12T03:33:17.541Z,102589.09
2019-04-12T03:35:46.039Z,102597.18
2019-04-12T03:38:14.439Z,102599.11
2019-04-12T03:40:42.939Z,102594.91
2019-04-12T03:43:11.517Z,102599.81
2019-04-12T03:45:40.019Z,102604.11
2019-04-12T03:48:08.504Z,102596.02
2019-04-12T03:50:37.706Z,102599.41
2019-04-12T03:53:06.174Z,102594.35
2019-04-12T03:55:35.124Z,102604.85
2019-04-12T03:58:03.616Z,102592.85
2019-04-12T04:00:33.665Z,102606.89
2019-04-12T04:03:02.102Z,102603.48
2019-04-12T04:05:30.566Z,102599.97
2019-04-12T04:07:59.170Z,102601.23
2019-04-12T04:10:28.254Z,102599.14
2019-04-12T04:12:56.822Z,102596.64
2019-04-12T04:15:25.296Z,102599.42
2019-04-12T04:17:57.824Z,102601.25
2019-04-12T04:20:33.840Z,102602.60
2019-04-12T04:23:19.332Z,102602.23
2019-04-12T04:25:52.241Z,102599.53
2019-04-12T04:28:38.531Z,102604.81
2019-04-12T04:31:11.270Z,102606.56
2019-04-12T04:33:53.631Z,102607.02
2019-04-12T04:36:22.045Z,102609.70
2019-04-12T04:38:50.821Z,102604.72
2019-04-12T04:41:19.290Z,102610.97
2019-04-12T04:43:47.798Z,102607.67
2019-04-12T04:46:16.199Z,102607.10
2019-04-12T04:48:44.630Z,102607.47
2019-04-12T04:51:13.106Z,102610.94
2019-04-12T04:53:41.614Z,102606.30
2019-04-12T04:56:10.186Z,102605.35
2019-04-12T04:58:38.620Z,102609.39
2019-04-12T05:01:07.596Z,102613.23
2019-04-12T05:03:36.216Z,102613.86
2019-04-12T05:06:04.886Z,102620.02
2019-04-12T05:08:33.585Z,102622.59
2019-04-12T05:11:02.154Z,102620.11
2019-04-12T05:13:30.654Z,102627.09
2019-04-12T05:15:59.054Z,102624.69
2019-04-12T05:18:27.558Z,102622.28
2019-04-12T05:20:56.038Z,102615.80
2019-04-12T05:23:24.517Z,102625.39
2019-04-12T05:25:53.012Z,102632.33
2019-04-12T05:28:23.035Z,102632.09
2019-04-12T05:30:51.668Z,102634.58
2019-04-12T05:33:20.241Z,102632.95
2019-04-12T05:35:49.409Z,102640.34
2019-04-12T05:38:18.297Z,102639.89
2019-04-12T05:40:46.793Z,102638.14
2019-04-12T05:43:15.207Z,102638.58
2019-04-12T05:45:48.376Z,102639.23
2019-04-12T05:48:18.495Z,102639.83
2019-04-12T05:50:46.998Z,102636.96
2019-04-12T05:53:15.468Z,102640.13
2019-04-12T05:55:51.142Z,102632.84
2019-04-12T05:58:33.258Z,102634.89
2019-04-12T06:01:06.128Z,102638.02
2019-04-12T06:03:35.427Z,102635.91
2019-04-12T06:06:04.384Z,102632.42
2019-04-12T06:08:32.843Z,102642.83
2019-04-12T06:11:01.348Z,102634.50
2019-04-12T06:13:30.529Z,102642.84
2019-04-12T06:15:59.129Z,102635.05
2019-04-12T06:18:27.537Z,102634.52
2019-04-12T06:20:58.874Z,102636.27
2019-04-12T06:23:27.351Z,102631.81
2019-04-12T06:25:57.425Z,102632.08
2019-04-12T06:28:25.828Z,102639.86
2019-04-12T06:30:55.972Z,102637.70
2019-04-12T06:33:24.448Z,102639.70
2019-04-12T06:35:52.943Z,102633.48
2019-04-12T06:38:21.434Z,102639.38
2019-04-12T06:40:49.857Z,102636.84
2019-04-12T06:43:18.324Z,102640.02
2019-04-12T06:45:46.834Z,102639.55
2019-04-12T06:48:15.235Z,102645.48
2019-04-12T06:50:45.378Z,102639.72
2019-04-12T06:53:13.786Z,102632.09
2019-04-12T06:55:46.481Z,102638.73
2019-04-12T06:58:14.986Z,102643.64
2019-04-12T07:00:47.975Z,102635.42
2019-04-12T07:03:34.400Z,102635.84
2019-04-12T07:06:03.313Z,102643.36
2019-04-12T07:08:31.715Z,102638.47
2019-04-12T07:11:00.116Z,102643.48
2019-04-12T07:13:28.548Z,102637.36
2019-04-12T07:15:56.953Z,102637.36
2019-04-12T07:18:25.374Z,102630.33
2019-04-12T07:20:53.779Z,102628.12
2019-04-12T07:23:22.211Z,102638.94
2019-04-12T07:25:50.681Z,102638.94
2019-04-12T07:28:19.111Z,102636.24
2019-04-12T07:30:56.669Z,102624.53
2019-04-12T07:33:18.254Z,102624.53
2019-04-12T07:35:46.649Z,102616.45
2019-04-12T07:38:15.089Z,102616.45
2019-04-12T07:40:43.496Z,102612.00
2019-04-12T07:43:11.929Z,102621.19
2019-04-12T07:45:40.356Z,102621.19
2019-04-12T07:48:08.834Z,102623.86
2019-04-12T07:50:47.729Z,102620.50
2019-04-12T07:53:16.153Z,102620.50
2019-04-12T07:55:48.656Z,102615.62
2019-04-12T07:58:18.720Z,102621.19
2019-04-12T08:01:03.870Z,102608.16
2019-04-12T08:03:42.990Z,102614.67
2019-04-12T08:06:18.834Z,102625.08
2019-04-12T08:08:47.261Z,102622.30
2019-04-12T08:11:15.664Z,102622.30
2019-04-12T08:13:44.091Z,102621.53
2019-04-12T08:16:12.584Z,102625.27
2019-04-12T08:18:41.064Z,102625.74
2019-04-12T08:21:09.459Z,102625.74
2019-04-12T08:23:37.951Z,102612.58
2019-04-12T08:26:06.356Z,102618.83
2019-04-12T08:28:34.784Z,102625.66
2019-04-12T08:31:03.213Z,102621.70
2019-04-12T08:33:31.675Z,102623.20
2019-04-12T08:36:00.062Z,102623.20
2019-04-12T08:38:28.463Z,102610.09
2019-04-12T08:40:56.971Z,102595.05
2019-04-12T08:43:25.368Z,102595.05
2019-04-12T08:45:53.797Z,102601.28
2019-04-12T08:48:22.208Z,102602.45
2019-04-12T08:50:50.680Z,102606.00
2019-04-12T08:53:19.088Z,102605.40
2019-04-12T08:55:47.576Z,102605.19
2019-04-12T08:58:15.990Z,102605.19
2019-04-12T09:00:44.607Z,102603.58
2019-04-12T09:03:13.031Z,102603.58
2019-04-12T09:05:41.485Z,102615.12
2019-04-12T09:08:09.894Z,102618.73
2019-04-12T09:10:38.334Z,102622.10
2019-04-12T09:13:06.723Z,102596.05
2019-04-12T09:15:35.827Z,102602.97
2019-04-12T09:18:04.323Z,102602.97
2019-04-12T09:20:40.586Z,102606.80
2019-04-12T09:23:10.653Z,102611.25
2019-04-12T09:25:40.832Z,102609.36
2019-04-12T09:28:09.957Z,102607.86
2019-04-12T09:30:39.683Z,102607.86
2019-04-12T09:33:08.207Z,102600.51
2019-04-12T09:35:36.652Z,102597.00
2019-04-12T09:38:05.075Z,102597.00
2019-04-12T09:40:33.483Z,102605.01
2019-04-12T09:43:01.926Z,102587.77
2019-04-12T09:45:30.478Z,102587.77
2019-04-12T09:47:58.902Z,102583.47
2019-04-12T09:50:27.306Z,102603.16
2019-04-12T09:52:55.739Z,102603.16
2019-04-12T09:55:24.285Z,102588.20
2019-04-12T09:57:52.729Z,102599.27
2019-04-12T10:00:21.621Z,102597.13
2019-04-12T10:02:50.170Z,102597.13
2019-04-12T10:05:18.568Z,102587.62
2019-04-12T10:07:46.994Z,102595.77
2019-04-12T10:10:15.463Z,102600.78
2019-04-12T10:12:43.886Z,102599.45
2019-04-12T10:15:14.464Z,102600.00
2019-04-12T10:17:42.893Z,102588.52
2019-04-12T10:20:11.532Z,102599.42
2019-04-12T10:22:39.961Z,102599.42
2019-04-12T10:25:08.504Z,102594.19
2019-04-12T10:27:38.575Z,102584.16
2019-04-12T10:30:07.812Z,102591.64
2019-04-12T10:32:36.247Z,102592.07
2019-04-12T10:35:05.022Z,102587.50
2019-04-12T10:37:33.610Z,102589.47
2019-04-12T10:40:02.004Z,102580.27
2019-04-12T10:42:30.401Z,102575.68
2019-04-12T10:45:02.960Z,102588.20
2019-04-12T10:47:39.173Z,102571.08
2019-04-12T10:50:24.593Z,102570.50
2019-04-12T10:52:54.683Z,102562.97
2019-04-12T10:55:27.573Z,102566.09
2019-04-12T10:57:56.045Z,102567.39
2019-04-12T11:00:26.112Z,102572.39
2019-04-12T11:02:54.509Z,102569.02
2019-04-12T11:05:23.046Z,102566.39
2019-04-12T11:07:51.430Z,102557.94
2019-04-12T11:10:19.862Z,102557.94
2019-04-12T11:12:48.259Z,102562.59
2019-04-12T11:15:21.644Z,102548.36
2019-04-12T11:17:46.883Z,102548.36
2019-04-12T11:20:15.308Z,102551.50
2019-04-12T11:22:43.712Z,102548.17
2019-04-12T11:25:12.210Z,102541.91
2019-04-12T11:27:40.609Z,102540.09
2019-04-12T11:30:09.310Z,102543.74
2019-04-12T11:32:37.706Z,102541.06
2019-04-12T11:35:07.109Z,102542.59
2019-04-12T11:37:35.510Z,102544.13
2019-04-12T11:40:05.607Z,102547.80
2019-04-12T11:42:33.985Z,102550.70
2019-04-12T11:45:02.471Z,102539.22
2019-04-12T11:47:30.873Z,102545.00
2019-04-12T11:49:59.302Z,102537.80
2019-04-12T11:52:27.700Z,102527.13
2019-04-12T11:54:56.129Z,102518.04
2019-04-12T11:57:24.538Z,102509.04
2019-04-12T11:59:52.969Z,102497.92
2019-04-12T12:02:31.888Z,102507.47
2019-04-12T12:05:04.389Z,102515.44
2019-04-12T12:07:49.233Z,102519.52
2019-04-12T12:10:12.159Z,102506.27
2019-04-12T12:12:44.983Z,102507.91
2019-04-12T12:15:30.097Z,102509.80
2019-04-12T12:18:00.139Z,102514.80
2019-04-12T12:20:28.632Z,102522.03
2019-04-12T12:22:57.030Z,102514.09
2019-04-12T12:25:25.439Z,102512.17
2019-04-12T12:27:53.876Z,102513.98
2019-04-12T12:30:22.274Z,102510.83
2019-04-12T12:32:50.698Z,102505.41
2019-04-12T12:35:19.103Z,102499.25
2019-04-12T12:37:47.529Z,102503.53
2019-04-12T12:40:15.929Z,102490.59
2019-04-12T12:42:44.353Z,102488.67
2019-04-12T12:45:12.897Z,102492.31
2019-04-12T12:47:41.321Z,102488.30
2019-04-12T12:50:09.898Z,102495.14
2019-04-12T12:52:38.329Z,102485.53
2019-04-12T12:55:06.725Z,102475.91
2019-04-12T12:57:35.153Z,102475.36
2019-04-12T13:00:04.023Z,102477.58
2019-04-12T13:02:32.453Z,102485.92
2019-04-12T13:05:00.922Z,102485.45
2019-04-12T13:07:29.346Z,102475.19
2019-04-12T13:09:57.753Z,102475.03
2019-04-12T13:12:26.181Z,102476.72
2019-04-12T13:14:54.583Z,102471.78
2019-04-12T13:17:23.017Z,102467.23
2019-04-12T13:19:51.424Z,102464.30
2019-04-12T13:22:19.849Z,102462.25
2019-04-12T13:24:48.251Z,102468.08
2019-04-12T13:27:16.650Z,102466.30
2019-04-12T13:29:45.445Z,102472.26
2019-04-12T13:32:21.265Z,102478.38
2019-04-12T13:34:54.120Z,102471.52
2019-04-12T13:37:35.775Z,102468.90
2019-04-12T13:40:07.488Z,102485.57
2019-04-12T13:42:40.295Z,102479.80
2019-04-12T13:45:10.130Z,102479.32
2019-04-12T13:47:38.542Z,102473.53
2019-04-12T13:50:07.735Z,102483.55
2019-04-12T13:52:36.222Z,102479.88
2019-04-12T13:55:05.900Z,102480.45
2019-04-12T13:57:34.289Z,102474.57
2019-04-12T14:00:03.088Z,102477.11
2019-04-12T14:02:31.485Z,102459.66
2019-04-12T14:04:59.923Z,102468.62
2019-04-12T14:07:28.331Z,102469.77
2019-04-12T14:09:56.759Z,102459.66
2019-04-12T14:12:25.163Z,102448.55
2019-04-12T14:14:53.587Z,102462.45
2019-04-12T14:17:21.982Z,102468.66
2019-04-12T14:19:50.411Z,102473.17
2019-04-12T14:22:18.824Z,102466.59
2019-04-12T14:24:47.258Z,102467.67
2019-04-12T14:27:15.723Z,102464.64
2019-04-12T14:29:44.146Z,102458.98
2019-04-12T14:32:14.192Z,102459.43
2019-04-12T14:34:44.265Z,102456.48
2019-04-12T14:37:16.925Z,102454.34
2019-04-12T14:39:45.723Z,102444.31
2019-04-12T14:42:14.390Z,102449.63
2019-04-12T14:44:50.314Z,102447.44
2019-04-12T14:47:23.049Z,102455.88
2019-04-12T14:49:51.473Z,102458.35
2019-04-12T14:52:19.874Z,102449.42
2019-04-12T14:54:48.301Z,102443.70
2019-04-12T14:57:16.704Z,102443.70
2019-04-12T14:59:45.129Z,102452.61
2019-04-12T15:02:13.543Z,102446.60
2019-04-12T15:04:41.962Z,102450.14
2019-04-12T15:07:10.368Z,102441.59
2019-04-12T15:09:38.842Z,102442.27
2019-04-12T15:12:07.247Z,102444.48
2019-04-12T15:14:35.732Z,102431.82
2019-04-12T15:17:04.440Z,102444.08
2019-04-12T15:19:32.836Z,102444.08
2019-04-12T15:22:01.272Z,102429.27
2019-04-12T15:24:29.674Z,102415.17
2019-04-12T15:26:58.097Z,102426.95
2019-04-12T15:29:26.504Z,102426.95
2019-04-12T15:31:54.933Z,102428.11
2019-04-12T15:34:23.336Z,102428.11
2019-04-12T15:36:51.765Z,102417.44
2019-04-12T15:39:20.165Z,102420.89
2019-04-12T15:41:48.603Z,102420.89
2019-04-12T15:44:17.002Z,102419.11
2019-04-12T15:46:45.505Z,102419.11
2019-04-12T15:49:13.913Z,102419.97
2019-04-12T15:51:42.342Z,102420.47
2019-04-12T15:54:10.744Z,102410.08
2019-04-12T15:56:39.169Z,102418.74
2019-04-12T15:59:07.575Z,102418.68
2019-04-12T16:01:36.073Z,102409.73
2019-04-12T16:04:05.008Z,102410.42
2019-04-12T16:06:33.509Z,102416.18
2019-04-12T16:09:17.981Z,102420.54
2019-04-12T16:11:49.587Z,102420.54
2019-04-12T16:14:20.501Z,102425.18
2019-04-12T16:17:15.951Z,102425.88
2019-04-12T16:19:46.293Z,102424.94
2019-04-12T16:22:14.795Z,102419.84
2019-04-12T16:24:43.265Z,102423.11
2019-04-12T16:27:11.697Z,102426.63
2019-04-12T16:29:44.493Z,102426.09
2019-04-12T16:32:20.240Z,102426.09
2019-04-12T16:35:06.120Z,102440.31
2019-04-12T16:37:38.899Z,102438.89
2019-04-12T16:40:08.069Z,102450.07
2019-04-12T16:42:36.516Z,102450.07
2019-04-12T16:45:06.407Z,102449.30
2019-04-12T16:47:34.908Z,102449.30
2019-04-12T16:50:04.589Z,102452.94
2019-04-12T16:52:32.982Z,102468.91
2019-04-12T16:55:01.412Z,102468.91
2019-04-12T16:57:29.818Z,102470.37
2019-04-12T16:59:58.248Z,102468.70
2019-04-12T17:02:26.654Z,102468.70
2019-04-12T17:04:55.110Z,102477.00
2019-04-12T17:07:23.488Z,102482.10
2019-04-12T17:09:51.926Z,102482.72
2019-04-12T17:12:20.325Z,102482.00
2019-04-12T17:14:48.756Z,102489.24
2019-04-12T17:17:17.159Z,102488.00
2019-04-12T17:19:45.592Z,102488.36
2019-04-12T17:22:13.996Z,102498.06
2019-04-12T17:24:42.423Z,102498.06
2019-04-12T17:27:10.832Z,102495.07
2019-04-12T17:29:39.274Z,102501.47
2019-04-12T17:32:07.683Z,102497.64
2019-04-12T17:34:36.115Z,102497.78
2019-04-12T17:37:04.519Z,102501.34
2019-04-12T17:39:32.946Z,102499.02
2019-04-12T17:42:01.353Z,102492.30
2019-04-12T17:44:29.783Z,102495.50
2019-04-12T17:46:58.188Z,102493.67
2019-04-12T17:49:34.199Z,102495.02
2019-04-12T17:52:04.246Z,102496.12
2019-04-12T17:54:52.670Z,102504.61
2019-04-12T17:57:21.071Z,102499.33
2019-04-12T17:59:49.512Z,102506.83
2019-04-12T18:02:22.224Z,102507.94
2019-04-12T18:05:10.178Z,102507.06
2019-04-12T18:07:38.587Z,102507.06
2019-04-12T18:10:11.332Z,102505.83
2019-04-12T18:12:39.807Z,102513.20
2019-04-12T18:15:10.242Z,102517.13
2019-04-12T18:17:38.649Z,102522.92
2019-04-12T18:20:07.688Z,102525.27
2019-04-12T18:22:36.124Z,102537.27
2019-04-12T18:25:07.231Z,102540.31
2019-04-12T18:27:35.795Z,102553.17
2019-04-12T18:30:05.596Z,102552.63
2019-04-12T18:32:34.043Z,102557.20
2019-04-12T18:35:02.456Z,102557.30
2019-04-12T18:37:30.917Z,102556.56
2019-04-12T18:39:59.288Z,102560.45
2019-04-12T18:42:27.790Z,102570.05
2019-04-12T18:44:56.270Z,102565.95
2019-04-12T18:47:24.706Z,102569.77
2019-04-12T18:49:53.146Z,102568.91
2019-04-12T18:52:21.558Z,102572.55
2019-04-12T18:54:49.962Z,102568.79
2019-04-12T18:57:18.396Z,102569.92
2019-04-12T18:59:46.797Z,102571.05
2019-04-12T19:02:26.447Z,102565.08
2019-04-12T19:04:45.426Z,102568.91
2019-04-12T19:07:15.902Z,102566.81
2019-04-12T19:09:44.405Z,102572.34
2019-04-12T19:12:12.837Z,102570.13
2019-04-12T19:14:41.246Z,102568.66
2019-04-12T19:17:11.382Z,102566.94
2019-04-12T19:19:39.786Z,102568.56
2019-04-12T19:22:08.219Z,102567.09
2019-04-12T19:24:36.618Z,102567.06
2019-04-12T19:27:05.122Z,102564.59
2019-04-12T19:29:33.533Z,102572.34
2019-04-12T19:32:12.466Z,102568.44
2019-04-12T19:34:51.224Z,102567.86
2019-04-12T19:37:33.315Z,102565.23
2019-04-12T19:40:09.006Z,102563.23
2019-04-12T19:42:37.439Z,102567.01
2019-04-12T19:45:06.883Z,102560.48
2019-04-12T19:47:35.327Z,102564.31
2019-04-12T19:50:05.075Z,102562.94
2019-04-12T19:52:35.920Z,102566.98
2019-04-12T19:55:03.722Z,102570.76
2019-04-12T19:57:32.145Z,102570.14
2019-04-12T20:00:00.551Z,102563.39
2019-04-12T20:02:28.957Z,102566.09
2019-04-12T20:04:57.385Z,102565.66
2019-04-12T20:07:25.794Z,102566.22
2019-04-12T20:09:54.227Z,102568.34
2019-04-12T20:12:22.641Z,102565.14
2019-04-12T20:14:51.074Z,102565.52
2019-04-12T20:17:19.479Z,102563.18
2019-04-12T20:19:47.917Z,102560.70
2019-04-12T20:22:16.336Z,102567.94
2019-04-12T20:24:44.766Z,102556.06
2019-04-12T20:27:13.171Z,102564.80
2019-04-12T20:29:41.603Z,102561.73
2019-04-12T20:32:10.006Z,102561.61
2019-04-12T20:34:38.446Z,102560.41
2019-04-12T20:37:06.848Z,102556.98
2019-04-12T20:39:35.275Z,102558.33
2019-04-12T20:42:03.744Z,102563.88
2019-04-12T20:44:32.179Z,102562.59
2019-04-12T20:47:00.595Z,102557.42
2019-04-12T20:49:29.096Z,102562.32
2019-04-12T20:51:57.497Z,102552.73
2019-04-12T20:54:25.931Z,102558.25
2019-04-12T20:56:54.339Z,102555.92
2019-04-12T20:59:22.795Z,102555.92
2019-04-12T21:01:51.211Z,102555.80
2019-04-12T21:04:19.612Z,102559.59
2019-04-12T21:06:48.058Z,102552.45
2019-04-12T21:09:16.458Z,102555.16
2019-04-12T21:11:44.891Z,102554.91
2019-04-12T21:14:13.288Z,102553.78
2019-04-12T21:16:41.803Z,102550.22
2019-04-12T21:19:10.355Z,102552.95
2019-04-12T21:21:38.823Z,102549.11
2019-04-12T21:24:07.230Z,102550.09
2019-04-12T21:26:35.658Z,102552.21
2019-04-12T21:29:04.086Z,102550.98
2019-04-12T21:31:32.504Z,102550.44
2019-04-12T21:34:00.902Z,102551.20
2019-04-12T21:36:29.329Z,102551.78
2019-04-12T21:38:57.734Z,102553.13
2019-04-12T21:41:26.165Z,102550.19
2019-04-12T21:43:54.574Z,102549.95
2019-04-12T21:46:23.012Z,102550.65
2019-04-12T21:48:51.413Z,102545.72
2019-04-12T21:51:19.927Z,102548.34
2019-04-12T21:53:50.363Z,102544.42
2019-04-12T21:56:18.480Z,102546.20
2019-04-12T21:58:46.881Z,102549.10
2019-04-12T22:01:17.158Z,102544.27
2019-04-12T22:03:46.056Z,102552.01
2019-04-12T22:06:14.491Z,102549.60
2019-04-12T22:08:42.897Z,102553.16
2019-04-12T22:11:11.327Z,102555.29
2019-04-12T22:13:39.727Z,102553.08
2019-04-12T22:16:08.227Z,102551.69
2019-04-12T22:18:36.631Z,102555.73
2019-04-12T22:21:05.112Z,102555.90
2019-04-12T22:23:33.535Z,102560.43
2019-04-12T22:26:02.120Z,102554.92
2019-04-12T22:28:30.546Z,102552.30
2019-04-12T22:30:58.948Z,102547.06
2019-04-12T22:33:27.393Z,102551.69
2019-04-12T22:35:55.801Z,102542.95
2019-04-12T22:38:24.239Z,102549.92
2019-04-12T22:40:52.641Z,102545.35
2019-04-12T22:43:21.072Z,102546.73
2019-04-12T22:45:49.478Z,102541.47
2019-04-12T22:48:17.915Z,102540.98
2019-04-12T22:50:46.315Z,102542.05
2019-04-12T22:53:14.760Z,102536.72
2019-04-12T22:55:43.159Z,102536.45
2019-04-12T22:58:11.578Z,102532.06
2019-04-12T23:00:39.987Z,102537.80
2019-04-12T23:03:08.418Z,102536.94
2019-04-12T23:05:36.835Z,102530.35
2019-04-12T23:08:05.346Z,102523.98
2019-04-12T23:10:34.208Z,102534.12
2019-04-12T23:13:02.651Z,102529.48
2019-04-12T23:15:31.052Z,102535.92
2019-04-12T23:17:59.489Z,102534.94
2019-04-12T23:20:27.891Z,102527.71
2019-04-12T23:22:56.292Z,102528.84
2019-04-12T23:25:24.725Z,102533.33
2019-04-12T23:27:53.133Z,102527.32
2019-04-12T23:30:23.199Z,102527.60
2019-04-12T23:32:51.598Z,102528.03
2019-04-12T23:35:21.670Z,102528.98
2019-04-12T23:37:50.113Z,102525.70
2019-04-12T23:40:18.552Z,102526.08
2019-04-12T23:42:46.952Z,102526.20
2019-04-12T23:45:17.090Z,102516.61
2019-04-12T23:47:45.493Z,102518.91
2019-04-12T23:50:14.567Z,102511.30
2019-04-12T23:52:42.972Z,102509.74
2019-04-12T23:55:11.480Z,102512.77
2019-04-12T23:57:39.881Z,102511.80
